sensor_id;sensor_type;location;lat;lon;timestamp;pressure;altitude;pressure_sealevel;temperature;humidity
34235;BME280;20500;49.856;20.290;2022-11-20T00:01:58;98639.05;;;-3.61;78.28
34235;BME280;20500;49.856;20.290;2022-11-20T00:05:07;98627.20;;;-3.61;78.38
34235;BME280;20500;49.856;20.290;2022-11-20T00:08:13;98622.32;;;-3.62;78.28
34235;BME280;20500;49.856;20.290;2022-11-20T00:11:21;98624.23;;;-3.65;78.42
34235;BME280;20500;49.856;20.290;2022-11-20T00:14:27;98625.67;;;-3.65;78.42
34235;BME280;20500;49.856;20.290;2022-11-20T00:17:34;98631.85;;;-3.64;78.47
34235;BME280;20500;49.856;20.290;2022-11-20T00:20:38;98638.59;;;-3.62;78.57
34235;BME280;20500;49.856;20.290;2022-11-20T00:23:45;98638.50;;;-3.61;78.64
34235;BME280;20500;49.856;20.290;2022-11-20T00:26:52;98637.45;;;-3.61;78.62
34235;BME280;20500;49.856;20.290;2022-11-20T00:29:56;98629.66;;;-3.61;78.50
34235;BME280;20500;49.856;20.290;2022-11-20T00:33:03;98624.41;;;-3.62;78.61
34235;BME280;20500;49.856;20.290;2022-11-20T00:36:08;98620.26;;;-3.64;78.65
34235;BME280;20500;49.856;20.290;2022-11-20T00:39:15;98621.94;;;-3.65;78.63
34235;BME280;20500;49.856;20.290;2022-11-20T00:42:22;98626.05;;;-3.63;78.67
34235;BME280;20500;49.856;20.290;2022-11-20T00:45:28;98630.15;;;-3.60;78.64
34235;BME280;20500;49.856;20.290;2022-11-20T00:48:35;98628.27;;;-3.61;78.72
34235;BME280;20500;49.856;20.290;2022-11-20T00:51:41;98626.98;;;-3.61;78.74
34235;BME280;20500;49.856;20.290;2022-11-20T00:54:47;98631.47;;;-3.59;78.80
34235;BME280;20500;49.856;20.290;2022-11-20T00:57:52;98635.51;;;-3.58;78.73
34235;BME280;20500;49.856;20.290;2022-11-20T01:01:03;98628.42;;;-3.59;78.78
34235;BME280;20500;49.856;20.290;2022-11-20T01:04:10;98622.25;;;-3.59;78.81
34235;BME280;20500;49.856;20.290;2022-11-20T01:07:14;98617.22;;;-3.58;78.77
34235;BME280;20500;49.856;20.290;2022-11-20T01:10:20;98617.26;;;-3.56;79.01
34235;BME280;20500;49.856;20.290;2022-11-20T01:13:25;98622.83;;;-3.52;78.89
34235;BME280;20500;49.856;20.290;2022-11-20T01:16:45;98629.79;;;-3.50;78.86
34235;BME280;20500;49.856;20.290;2022-11-20T01:19:52;98633.88;;;-3.48;79.00
34235;BME280;20500;49.856;20.290;2022-11-20T01:22:58;98630.30;;;-3.45;79.06
34235;BME280;20500;49.856;20.290;2022-11-20T01:26:03;98626.27;;;-3.45;79.07
34235;BME280;20500;49.856;20.290;2022-11-20T01:29:12;98623.52;;;-3.47;79.12
34235;BME280;20500;49.856;20.290;2022-11-20T01:32:19;98618.00;;;-3.46;79.07
34235;BME280;20500;49.856;20.290;2022-11-20T01:35:25;98611.88;;;-3.47;78.88
34235;BME280;20500;49.856;20.290;2022-11-20T01:38:32;98609.30;;;-3.46;78.99
34235;BME280;20500;49.856;20.290;2022-11-20T01:41:38;98600.52;;;-3.45;78.99
34235;BME280;20500;49.856;20.290;2022-11-20T01:48:24;98601.04;;;-3.45;79.03
34235;BME280;20500;49.856;20.290;2022-11-20T01:51:33;98607.39;;;-3.44;79.07
34235;BME280;20500;49.856;20.290;2022-11-20T01:54:43;98609.61;;;-3.46;78.97
34235;BME280;20500;49.856;20.290;2022-11-20T01:57:53;98608.52;;;-3.45;79.08
34235;BME280;20500;49.856;20.290;2022-11-20T02:01:00;98602.19;;;-3.43;79.13
34235;BME280;20500;49.856;20.290;2022-11-20T02:04:08;98598.68;;;-3.52;78.82
34235;BME280;20500;49.856;20.290;2022-11-20T02:07:15;98590.94;;;-3.58;78.96
34235;BME280;20500;49.856;20.290;2022-11-20T02:10:22;98590.86;;;-3.64;78.83
34235;BME280;20500;49.856;20.290;2022-11-20T02:13:29;98595.86;;;-3.70;79.02
34235;BME280;20500;49.856;20.290;2022-11-20T02:16:51;98602.23;;;-3.70;79.17
34235;BME280;20500;49.856;20.290;2022-11-20T02:19:57;98602.42;;;-3.70;79.13
34235;BME280;20500;49.856;20.290;2022-11-20T02:23:08;98599.96;;;-3.70;79.24
34235;BME280;20500;49.856;20.290;2022-11-20T02:26:18;98600.46;;;-3.72;79.11
34235;BME280;20500;49.856;20.290;2022-11-20T02:29:37;98601.62;;;-3.74;79.17
34235;BME280;20500;49.856;20.290;2022-11-20T02:32:44;98604.81;;;-3.74;79.14
34235;BME280;20500;49.856;20.290;2022-11-20T02:35:51;98598.20;;;-3.76;79.10
34235;BME280;20500;49.856;20.290;2022-11-20T02:38:57;98597.13;;;-3.78;79.02
34235;BME280;20500;49.856;20.290;2022-11-20T02:42:04;98592.35;;;-3.91;78.92
34235;BME280;20500;49.856;20.290;2022-11-20T02:45:12;98592.89;;;-4.07;78.88
34235;BME280;20500;49.856;20.290;2022-11-20T02:48:18;98593.38;;;-4.12;79.26
34235;BME280;20500;49.856;20.290;2022-11-20T02:51:24;98594.06;;;-4.09;79.24
34235;BME280;20500;49.856;20.290;2022-11-20T02:54:31;98594.17;;;-4.08;79.27
34235;BME280;20500;49.856;20.290;2022-11-20T02:57:37;98594.20;;;-4.06;79.13
34235;BME280;20500;49.856;20.290;2022-11-20T03:00:42;98592.11;;;-4.06;79.10
34235;BME280;20500;49.856;20.290;2022-11-20T03:03:48;98581.92;;;-4.08;79.16
34235;BME280;20500;49.856;20.290;2022-11-20T03:06:55;98574.45;;;-4.12;78.96
34235;BME280;20500;49.856;20.290;2022-11-20T03:10:01;98574.58;;;-4.17;79.00
34235;BME280;20500;49.856;20.290;2022-11-20T03:13:06;98574.08;;;-4.18;79.14
34235;BME280;20500;49.856;20.290;2022-11-20T03:16:14;98581.89;;;-4.18;79.16
34235;BME280;20500;49.856;20.290;2022-11-20T03:19:21;98583.23;;;-4.19;79.02
34235;BME280;20500;49.856;20.290;2022-11-20T03:22:30;98577.63;;;-4.20;79.14
34235;BME280;20500;49.856;20.290;2022-11-20T03:25:36;98577.16;;;-4.26;79.09
34235;BME280;20500;49.856;20.290;2022-11-20T03:28:47;98581.66;;;-4.35;79.10
34235;BME280;20500;49.856;20.290;2022-11-20T03:31:54;98580.77;;;-4.46;79.01
34235;BME280;20500;49.856;20.290;2022-11-20T03:34:58;98579.92;;;-4.55;79.02
34235;BME280;20500;49.856;20.290;2022-11-20T03:38:05;98582.70;;;-4.60;79.09
34235;BME280;20500;49.856;20.290;2022-11-20T03:41:13;98578.54;;;-4.67;79.11
34235;BME280;20500;49.856;20.290;2022-11-20T03:44:22;98575.39;;;-4.73;79.24
34235;BME280;20500;49.856;20.290;2022-11-20T03:47:29;98575.36;;;-4.78;79.16
34235;BME280;20500;49.856;20.290;2022-11-20T03:50:35;98581.09;;;-4.79;79.29
34235;BME280;20500;49.856;20.290;2022-11-20T03:53:43;98579.21;;;-4.75;79.45
34235;BME280;20500;49.856;20.290;2022-11-20T03:56:49;98573.02;;;-4.69;79.46
34235;BME280;20500;49.856;20.290;2022-11-20T03:59:54;98568.96;;;-4.64;79.48
34235;BME280;20500;49.856;20.290;2022-11-20T04:03:00;98571.23;;;-4.58;79.50
34235;BME280;20500;49.856;20.290;2022-11-20T04:06:10;98572.45;;;-4.55;79.38
34235;BME280;20500;49.856;20.290;2022-11-20T04:09:17;98567.94;;;-4.53;79.36
34235;BME280;20500;49.856;20.290;2022-11-20T04:12:23;98567.00;;;-4.53;79.38
34235;BME280;20500;49.856;20.290;2022-11-20T04:15:28;98568.27;;;-4.53;79.20
34235;BME280;20500;49.856;20.290;2022-11-20T04:18:41;98573.15;;;-4.57;79.07
34235;BME280;20500;49.856;20.290;2022-11-20T04:21:48;98570.69;;;-4.66;78.99
34235;BME280;20500;49.856;20.290;2022-11-20T04:24:55;98568.91;;;-4.71;79.04
34235;BME280;20500;49.856;20.290;2022-11-20T04:27:59;98562.77;;;-4.75;79.17
34235;BME280;20500;49.856;20.290;2022-11-20T04:31:07;98564.62;;;-4.76;79.30
34235;BME280;20500;49.856;20.290;2022-11-20T04:34:14;98566.21;;;-4.76;79.22
34235;BME280;20500;49.856;20.290;2022-11-20T04:37:20;98567.33;;;-4.77;79.18
34235;BME280;20500;49.856;20.290;2022-11-20T04:40:25;98568.48;;;-4.78;79.19
34235;BME280;20500;49.856;20.290;2022-11-20T04:43:32;98570.90;;;-4.80;79.16
34235;BME280;20500;49.856;20.290;2022-11-20T04:46:40;98568.38;;;-4.82;79.24
34235;BME280;20500;49.856;20.290;2022-11-20T04:49:46;98566.42;;;-4.84;79.31
34235;BME280;20500;49.856;20.290;2022-11-20T04:52:53;98563.49;;;-4.86;79.18
34235;BME280;20500;49.856;20.290;2022-11-20T04:56:03;98559.16;;;-4.87;79.05
34235;BME280;20500;49.856;20.290;2022-11-20T04:59:09;98561.02;;;-4.89;79.14
34235;BME280;20500;49.856;20.290;2022-11-20T05:02:16;98554.83;;;-4.89;79.21
34235;BME280;20500;49.856;20.290;2022-11-20T05:05:22;98555.91;;;-4.89;79.32
34235;BME280;20500;49.856;20.290;2022-11-20T05:08:26;98559.98;;;-4.86;79.47
34235;BME280;20500;49.856;20.290;2022-11-20T05:11:33;98572.10;;;-4.85;79.26
34235;BME280;20500;49.856;20.290;2022-11-20T05:14:39;98572.02;;;-4.86;79.20
34235;BME280;20500;49.856;20.290;2022-11-20T05:17:49;98571.25;;;-4.85;79.23
34235;BME280;20500;49.856;20.290;2022-11-20T05:20:57;98566.60;;;-4.85;79.25
34235;BME280;20500;49.856;20.290;2022-11-20T05:24:04;98559.33;;;-4.84;79.32
34235;BME280;20500;49.856;20.290;2022-11-20T05:27:11;98547.27;;;-4.86;79.28
34235;BME280;20500;49.856;20.290;2022-11-20T05:30:16;98541.02;;;-4.86;79.37
34235;BME280;20500;49.856;20.290;2022-11-20T05:33:23;98537.84;;;-4.83;79.37
34235;BME280;20500;49.856;20.290;2022-11-20T05:36:31;98538.13;;;-4.85;79.36
34235;BME280;20500;49.856;20.290;2022-11-20T05:39:37;98539.55;;;-4.88;79.26
34235;BME280;20500;49.856;20.290;2022-11-20T05:42:44;98534.77;;;-4.91;79.41
34235;BME280;20500;49.856;20.290;2022-11-20T05:45:53;98533.29;;;-4.95;79.37
34235;BME280;20500;49.856;20.290;2022-11-20T05:48:59;98531.80;;;-4.97;79.41
34235;BME280;20500;49.856;20.290;2022-11-20T05:52:06;98535.05;;;-4.98;79.32
34235;BME280;20500;49.856;20.290;2022-11-20T05:55:13;98540.35;;;-4.98;79.34
34235;BME280;20500;49.856;20.290;2022-11-20T05:58:19;98543.58;;;-4.96;79.42
34235;BME280;20500;49.856;20.290;2022-11-20T06:01:24;98548.63;;;-4.94;79.41
34235;BME280;20500;49.856;20.290;2022-11-20T06:04:31;98546.90;;;-4.95;79.33
34235;BME280;20500;49.856;20.290;2022-11-20T06:07:37;98545.65;;;-5.00;79.18
34235;BME280;20500;49.856;20.290;2022-11-20T06:10:44;98540.52;;;-5.06;79.20
34235;BME280;20500;49.856;20.290;2022-11-20T06:13:48;98535.73;;;-5.06;79.52
34235;BME280;20500;49.856;20.290;2022-11-20T06:16:54;98529.34;;;-5.03;79.43
34235;BME280;20500;49.856;20.290;2022-11-20T06:19:59;98522.64;;;-5.03;79.39
34235;BME280;20500;49.856;20.290;2022-11-20T06:23:05;98516.27;;;-5.05;79.41
34235;BME280;20500;49.856;20.290;2022-11-20T06:26:13;98514.05;;;-5.07;79.41
34235;BME280;20500;49.856;20.290;2022-11-20T06:29:20;98516.90;;;-5.07;79.37
34235;BME280;20500;49.856;20.290;2022-11-20T06:32:27;98526.55;;;-5.08;79.33
34235;BME280;20500;49.856;20.290;2022-11-20T06:35:31;98528.94;;;-5.13;79.29
34235;BME280;20500;49.856;20.290;2022-11-20T06:38:38;98524.14;;;-5.18;79.33
34235;BME280;20500;49.856;20.290;2022-11-20T06:41:45;98524.44;;;-5.23;79.32
34235;BME280;20500;49.856;20.290;2022-11-20T06:44:49;98522.47;;;-5.28;79.31
34235;BME280;20500;49.856;20.290;2022-11-20T06:47:58;98518.83;;;-5.29;79.38
34235;BME280;20500;49.856;20.290;2022-11-20T06:51:06;98516.61;;;-5.30;79.33
34235;BME280;20500;49.856;20.290;2022-11-20T06:54:13;98516.44;;;-5.28;79.42
34235;BME280;20500;49.856;20.290;2022-11-20T06:57:19;98511.66;;;-5.25;79.43
34235;BME280;20500;49.856;20.290;2022-11-20T07:00:24;98510.46;;;-5.25;79.42
34235;BME280;20500;49.856;20.290;2022-11-20T07:03:31;98510.10;;;-5.25;79.46
34235;BME280;20500;49.856;20.290;2022-11-20T07:06:37;98511.83;;;-5.25;79.45
34235;BME280;20500;49.856;20.290;2022-11-20T07:09:44;98514.58;;;-5.21;79.64
34235;BME280;20500;49.856;20.290;2022-11-20T07:12:50;98516.47;;;-5.14;79.59
34235;BME280;20500;49.856;20.290;2022-11-20T07:16:00;98515.42;;;-5.06;79.75
34235;BME280;20500;49.856;20.290;2022-11-20T07:19:07;98519.00;;;-4.99;79.83
34235;BME280;20500;49.856;20.290;2022-11-20T07:22:13;98528.05;;;-4.91;79.87
34235;BME280;20500;49.856;20.290;2022-11-20T07:25:20;98531.56;;;-4.82;80.03
34235;BME280;20500;49.856;20.290;2022-11-20T07:28:27;98532.30;;;-4.74;80.18
34235;BME280;20500;49.856;20.290;2022-11-20T07:31:31;98532.60;;;-4.65;80.30
34235;BME280;20500;49.856;20.290;2022-11-20T07:34:38;98531.13;;;-4.56;80.22
34235;BME280;20500;49.856;20.290;2022-11-20T07:37:44;98535.66;;;-4.50;80.16
34235;BME280;20500;49.856;20.290;2022-11-20T07:40:55;98537.26;;;-4.42;80.26
34235;BME280;20500;49.856;20.290;2022-11-20T07:44:02;98539.06;;;-4.34;80.31
34235;BME280;20500;49.856;20.290;2022-11-20T07:47:09;98535.42;;;-4.30;80.39
34235;BME280;20500;49.856;20.290;2022-11-20T07:50:13;98544.20;;;-4.24;80.30
34235;BME280;20500;49.856;20.290;2022-11-20T07:53:20;98550.92;;;-4.16;80.43
34235;BME280;20500;49.856;20.290;2022-11-20T07:56:24;98549.39;;;-4.09;80.58
34235;BME280;20500;49.856;20.290;2022-11-20T07:59:31;98544.90;;;-4.03;80.33
34235;BME280;20500;49.856;20.290;2022-11-20T08:02:36;98537.42;;;-3.97;80.56
34235;BME280;20500;49.856;20.290;2022-11-20T08:05:42;98533.96;;;-3.88;80.57
34235;BME280;20500;49.856;20.290;2022-11-20T08:08:47;98533.21;;;-3.77;80.63
34235;BME280;20500;49.856;20.290;2022-11-20T08:11:53;98533.22;;;-3.69;80.61
34235;BME280;20500;49.856;20.290;2022-11-20T08:15:13;98530.43;;;-3.65;80.51
34235;BME280;20500;49.856;20.290;2022-11-20T08:18:18;98530.98;;;-3.60;80.47
34235;BME280;20500;49.856;20.290;2022-11-20T08:21:36;98527.80;;;-3.57;80.45
34235;BME280;20500;49.856;20.290;2022-11-20T08:24:42;98522.95;;;-3.54;80.41
34235;BME280;20500;49.856;20.290;2022-11-20T08:27:47;98521.27;;;-3.48;80.65
34235;BME280;20500;49.856;20.290;2022-11-20T08:30:59;98524.61;;;-3.37;80.82
34235;BME280;20500;49.856;20.290;2022-11-20T08:34:06;98524.79;;;-3.27;80.92
34235;BME280;20500;49.856;20.290;2022-11-20T08:37:13;98521.73;;;-3.19;81.06
34235;BME280;20500;49.856;20.290;2022-11-20T08:40:18;98520.68;;;-3.07;81.04
34235;BME280;20500;49.856;20.290;2022-11-20T08:43:24;98512.44;;;-2.94;81.11
34235;BME280;20500;49.856;20.290;2022-11-20T08:46:33;98510.90;;;-2.82;81.20
34235;BME280;20500;49.856;20.290;2022-11-20T08:49:41;98508.48;;;-2.74;81.17
34235;BME280;20500;49.856;20.290;2022-11-20T08:52:45;98504.45;;;-2.62;81.12
34235;BME280;20500;49.856;20.290;2022-11-20T08:55:52;98500.42;;;-2.56;81.16
34235;BME280;20500;49.856;20.290;2022-11-20T08:58:57;98496.70;;;-2.51;81.17
34235;BME280;20500;49.856;20.290;2022-11-20T09:02:25;98493.52;;;-2.45;81.16
34235;BME280;20500;49.856;20.290;2022-11-20T09:05:31;98493.36;;;-2.37;81.22
34235;BME280;20500;49.856;20.290;2022-11-20T09:08:38;98492.67;;;-2.33;81.22
34235;BME280;20500;49.856;20.290;2022-11-20T09:11:42;98485.87;;;-2.32;81.07
34235;BME280;20500;49.856;20.290;2022-11-20T09:14:48;98482.10;;;-2.34;81.09
34235;BME280;20500;49.856;20.290;2022-11-20T09:18:00;98487.44;;;-2.37;81.10
34235;BME280;20500;49.856;20.290;2022-11-20T09:21:09;98485.42;;;-2.33;81.29
34235;BME280;20500;49.856;20.290;2022-11-20T09:24:16;98487.66;;;-2.26;81.26
34235;BME280;20500;49.856;20.290;2022-11-20T09:27:22;98480.23;;;-2.19;81.37
34235;BME280;20500;49.856;20.290;2022-11-20T09:30:27;98473.06;;;-2.13;81.37
34235;BME280;20500;49.856;20.290;2022-11-20T09:33:33;98468.77;;;-2.11;81.25
34235;BME280;20500;49.856;20.290;2022-11-20T09:36:40;98466.66;;;-2.09;81.25
34235;BME280;20500;49.856;20.290;2022-11-20T09:39:47;98465.05;;;-2.04;81.27
34235;BME280;20500;49.856;20.290;2022-11-20T09:42:52;98467.17;;;-2.02;81.33
34235;BME280;20500;49.856;20.290;2022-11-20T09:46:07;98471.73;;;-1.94;81.33
34235;BME280;20500;49.856;20.290;2022-11-20T09:49:27;98473.27;;;-1.86;81.32
34235;BME280;20500;49.856;20.290;2022-11-20T09:52:47;98468.97;;;-1.72;81.53
34235;BME280;20500;49.856;20.290;2022-11-20T09:55:59;98471.45;;;-1.58;81.45
34235;BME280;20500;49.856;20.290;2022-11-20T09:59:12;98476.06;;;-1.49;81.24
34235;BME280;20500;49.856;20.290;2022-11-20T10:02:29;98479.05;;;-1.37;81.30
34235;BME280;20500;49.856;20.290;2022-11-20T10:05:40;98482.33;;;-1.27;81.22
34235;BME280;20500;49.856;20.290;2022-11-20T10:08:54;98485.84;;;-1.18;81.36
34235;BME280;20500;49.856;20.290;2022-11-20T10:12:10;98487.19;;;-1.08;81.12
34235;BME280;20500;49.856;20.290;2022-11-20T10:15:28;98490.92;;;-1.04;81.18
34235;BME280;20500;49.856;20.290;2022-11-20T10:18:47;98492.96;;;-0.98;81.16
34235;BME280;20500;49.856;20.290;2022-11-20T10:22:05;98492.09;;;-0.89;81.07
34235;BME280;20500;49.856;20.290;2022-11-20T10:25:16;98481.98;;;-0.81;81.26
34235;BME280;20500;49.856;20.290;2022-11-20T10:28:37;98479.56;;;-0.75;81.16
34235;BME280;20500;49.856;20.290;2022-11-20T10:32:04;98480.50;;;-0.71;81.08
34235;BME280;20500;49.856;20.290;2022-11-20T10:35:20;98482.16;;;-0.70;81.11
34235;BME280;20500;49.856;20.290;2022-11-20T10:38:36;98478.13;;;-0.69;81.05
34235;BME280;20500;49.856;20.290;2022-11-20T10:41:46;98476.25;;;-0.63;81.15
34235;BME280;20500;49.856;20.290;2022-11-20T10:45:09;98472.90;;;-0.59;81.13
34235;BME280;20500;49.856;20.290;2022-11-20T10:48:22;98472.33;;;-0.52;81.27
34235;BME280;20500;49.856;20.290;2022-11-20T10:51:37;98471.08;;;-0.46;81.13
34235;BME280;20500;49.856;20.290;2022-11-20T10:54:52;98468.79;;;-0.38;81.23
34235;BME280;20500;49.856;20.290;2022-11-20T10:58:10;98468.07;;;-0.29;81.32
34235;BME280;20500;49.856;20.290;2022-11-20T11:01:20;98459.98;;;-0.20;81.28
34235;BME280;20500;49.856;20.290;2022-11-20T11:04:35;98453.10;;;-0.12;81.23
34235;BME280;20500;49.856;20.290;2022-11-20T11:07:43;98447.11;;;-0.07;81.26
34235;BME280;20500;49.856;20.290;2022-11-20T11:10:53;98445.05;;;-0.04;81.09
34235;BME280;20500;49.856;20.290;2022-11-20T11:14:07;98444.73;;;-0.02;81.22
34235;BME280;20500;49.856;20.290;2022-11-20T11:17:26;98449.91;;;0.00;81.12
34235;BME280;20500;49.856;20.290;2022-11-20T11:20:33;98447.10;;;0.04;81.11
34235;BME280;20500;49.856;20.290;2022-11-20T11:23:38;98436.80;;;0.10;81.20
34235;BME280;20500;49.856;20.290;2022-11-20T11:26:53;98428.91;;;0.12;80.96
34235;BME280;20500;49.856;20.290;2022-11-20T11:30:03;98426.09;;;0.14;81.17
34235;BME280;20500;49.856;20.290;2022-11-20T11:33:18;98420.30;;;0.21;81.25
34235;BME280;20500;49.856;20.290;2022-11-20T11:36:24;98418.34;;;0.25;81.15
34235;BME280;20500;49.856;20.290;2022-11-20T11:39:29;98418.48;;;0.29;81.26
34235;BME280;20500;49.856;20.290;2022-11-20T11:42:39;98408.23;;;0.34;81.03
34235;BME280;20500;49.856;20.290;2022-11-20T11:45:54;98404.32;;;0.36;80.81
34235;BME280;20500;49.856;20.290;2022-11-20T11:49:08;98399.25;;;0.41;81.06
34235;BME280;20500;49.856;20.290;2022-11-20T11:52:20;98391.27;;;0.46;81.01
34235;BME280;20500;49.856;20.290;2022-11-20T11:55:33;98386.42;;;0.55;80.97
34235;BME280;20500;49.856;20.290;2022-11-20T11:58:47;98385.21;;;0.61;80.80
34235;BME280;20500;49.856;20.290;2022-11-20T12:01:57;98375.14;;;0.60;80.79
34235;BME280;20500;49.856;20.290;2022-11-20T12:05:13;98379.60;;;0.60;80.80
34235;BME280;20500;49.856;20.290;2022-11-20T12:08:25;98381.97;;;0.65;80.85
34235;BME280;20500;49.856;20.290;2022-11-20T12:11:37;98382.19;;;0.72;80.96
34235;BME280;20500;49.856;20.290;2022-11-20T12:14:48;98383.96;;;0.79;80.88
34235;BME280;20500;49.856;20.290;2022-11-20T12:17:57;98385.47;;;0.84;80.74
34235;BME280;20500;49.856;20.290;2022-11-20T12:21:19;98385.92;;;0.86;80.86
34235;BME280;20500;49.856;20.290;2022-11-20T12:24:46;98378.57;;;0.89;80.90
34235;BME280;20500;49.856;20.290;2022-11-20T12:28:14;98375.56;;;0.93;80.88
34235;BME280;20500;49.856;20.290;2022-11-20T12:31:38;98373.95;;;0.98;80.91
34235;BME280;20500;49.856;20.290;2022-11-20T12:34:52;98376.06;;;1.07;80.96
34235;BME280;20500;49.856;20.290;2022-11-20T12:38:15;98373.11;;;1.12;80.57
34235;BME280;20500;49.856;20.290;2022-11-20T12:45:49;98368.34;;;1.13;80.61
34235;BME280;20500;49.856;20.290;2022-11-20T12:49:26;98368.91;;;1.18;80.65
34235;BME280;20500;49.856;20.290;2022-11-20T12:52:47;98372.17;;;1.22;80.60
34235;BME280;20500;49.856;20.290;2022-11-20T12:55:58;98372.35;;;1.26;80.62
34235;BME280;20500;49.856;20.290;2022-11-20T12:59:23;98376.24;;;1.30;80.66
34235;BME280;20500;49.856;20.290;2022-11-20T13:02:55;98375.77;;;1.32;80.50
34235;BME280;20500;49.856;20.290;2022-11-20T13:06:13;98368.80;;;1.31;80.38
34235;BME280;20500;49.856;20.290;2022-11-20T13:09:20;98365.80;;;1.31;80.21
34235;BME280;20500;49.856;20.290;2022-11-20T13:12:33;98359.99;;;1.28;80.21
34235;BME280;20500;49.856;20.290;2022-11-20T13:15:47;98360.36;;;1.26;80.24
34235;BME280;20500;49.856;20.290;2022-11-20T13:18:56;98354.20;;;1.23;80.13
34235;BME280;20500;49.856;20.290;2022-11-20T13:22:09;98351.86;;;1.19;80.21
34235;BME280;20500;49.856;20.290;2022-11-20T13:25:26;98350.73;;;1.16;80.16
34235;BME280;20500;49.856;20.290;2022-11-20T13:28:33;98345.95;;;1.16;80.08
34235;BME280;20500;49.856;20.290;2022-11-20T13:31:44;98343.66;;;1.13;79.97
34235;BME280;20500;49.856;20.290;2022-11-20T13:34:55;98340.02;;;1.14;79.99
34235;BME280;20500;49.856;20.290;2022-11-20T13:38:10;98336.96;;;1.14;79.88
34235;BME280;20500;49.856;20.290;2022-11-20T13:41:26;98331.91;;;1.11;79.94
34235;BME280;20500;49.856;20.290;2022-11-20T13:44:42;98329.85;;;1.08;80.00
34235;BME280;20500;49.856;20.290;2022-11-20T13:47:51;98335.23;;;1.06;79.98
34235;BME280;20500;49.856;20.290;2022-11-20T13:51:12;98330.66;;;1.05;79.96
34235;BME280;20500;49.856;20.290;2022-11-20T13:58:24;98314.63;;;0.95;79.85
34235;BME280;20500;49.856;20.290;2022-11-20T14:01:36;98305.55;;;0.87;79.76
34235;BME280;20500;49.856;20.290;2022-11-20T14:04:47;98299.23;;;0.78;79.83
34235;BME280;20500;49.856;20.290;2022-11-20T14:07:55;98291.98;;;0.67;79.59
34235;BME280;20500;49.856;20.290;2022-11-20T14:11:12;98291.40;;;0.56;79.65
34235;BME280;20500;49.856;20.290;2022-11-20T14:14:21;98297.17;;;0.49;79.67
34235;BME280;20500;49.856;20.290;2022-11-20T14:17:33;98308.65;;;0.42;79.60
34235;BME280;20500;49.856;20.290;2022-11-20T14:20:40;98318.80;;;0.39;79.75
34235;BME280;20500;49.856;20.290;2022-11-20T14:23:47;98323.69;;;0.38;79.81
34235;BME280;20500;49.856;20.290;2022-11-20T14:26:52;98329.80;;;0.37;79.80
34235;BME280;20500;49.856;20.290;2022-11-20T14:30:02;98336.21;;;0.39;80.03
34235;BME280;20500;49.856;20.290;2022-11-20T14:33:12;98336.86;;;0.38;79.91
34235;BME280;20500;49.856;20.290;2022-11-20T14:36:20;98334.50;;;0.39;79.92
34235;BME280;20500;49.856;20.290;2022-11-20T14:39:31;98331.73;;;0.40;80.03
34235;BME280;20500;49.856;20.290;2022-11-20T14:42:45;98329.05;;;0.40;79.99
34235;BME280;20500;49.856;20.290;2022-11-20T14:45:56;98319.72;;;0.40;80.05
34235;BME280;20500;49.856;20.290;2022-11-20T14:49:04;98309.80;;;0.37;79.83
34235;BME280;20500;49.856;20.290;2022-11-20T14:52:15;98308.42;;;0.35;79.83
34235;BME280;20500;49.856;20.290;2022-11-20T14:55:32;98300.63;;;0.32;79.73
34235;BME280;20500;49.856;20.290;2022-11-20T14:58:39;98296.05;;;0.28;79.68
34235;BME280;20500;49.856;20.290;2022-11-20T15:01:43;98297.36;;;0.23;79.81
34235;BME280;20500;49.856;20.290;2022-11-20T15:05:02;98297.81;;;0.17;79.66
34235;BME280;20500;49.856;20.290;2022-11-20T15:08:10;98299.58;;;0.12;79.60
34235;BME280;20500;49.856;20.290;2022-11-20T15:11:22;98300.13;;;0.06;79.66
34235;BME280;20500;49.856;20.290;2022-11-20T15:14:32;98295.50;;;-0.01;79.71
34235;BME280;20500;49.856;20.290;2022-11-20T15:17:39;98294.26;;;-0.07;79.64
34235;BME280;20500;49.856;20.290;2022-11-20T15:20:47;98292.83;;;-0.13;79.68
34235;BME280;20500;49.856;20.290;2022-11-20T15:23:54;98293.19;;;-0.15;79.78
34235;BME280;20500;49.856;20.290;2022-11-20T15:27:01;98287.27;;;-0.20;79.70
34235;BME280;20500;49.856;20.290;2022-11-20T15:30:14;98287.58;;;-0.26;79.73
34235;BME280;20500;49.856;20.290;2022-11-20T15:33:21;98291.41;;;-0.33;79.67
34235;BME280;20500;49.856;20.290;2022-11-20T15:36:28;98286.39;;;-0.37;79.64
34235;BME280;20500;49.856;20.290;2022-11-20T15:39:34;98282.88;;;-0.42;79.71
34235;BME280;20500;49.856;20.290;2022-11-20T15:42:41;98280.27;;;-0.46;79.73
34235;BME280;20500;49.856;20.290;2022-11-20T15:46:15;98278.18;;;-0.52;79.64
34235;BME280;20500;49.856;20.290;2022-11-20T15:49:22;98274.67;;;-0.56;79.79
34235;BME280;20500;49.856;20.290;2022-11-20T15:52:28;98262.31;;;-0.60;79.65
34235;BME280;20500;49.856;20.290;2022-11-20T15:55:46;98255.11;;;-0.65;79.75
34235;BME280;20500;49.856;20.290;2022-11-20T15:58:52;98260.39;;;-0.67;79.77
34235;BME280;20500;49.856;20.290;2022-11-20T16:01:59;98258.33;;;-0.69;79.66
34235;BME280;20500;49.856;20.290;2022-11-20T16:05:04;98256.92;;;-0.74;79.64
34235;BME280;20500;49.856;20.290;2022-11-20T16:08:10;98256.02;;;-0.78;79.52
34235;BME280;20500;49.856;20.290;2022-11-20T16:11:17;98256.80;;;-0.81;79.70
34235;BME280;20500;49.856;20.290;2022-11-20T16:14:24;98252.88;;;-0.81;80.01
34235;BME280;20500;49.856;20.290;2022-11-20T16:17:48;98255.23;;;-0.79;79.99
34235;BME280;20500;49.856;20.290;2022-11-20T16:20:53;98251.70;;;-0.80;79.97
34235;BME280;20500;49.856;20.290;2022-11-20T16:24:00;98244.48;;;-0.82;79.82
34235;BME280;20500;49.856;20.290;2022-11-20T16:27:07;98250.31;;;-0.84;79.97
34235;BME280;20500;49.856;20.290;2022-11-20T16:30:15;98262.12;;;-0.85;79.99
34235;BME280;20500;49.856;20.290;2022-11-20T16:33:21;98266.00;;;-0.84;79.88
34235;BME280;20500;49.856;20.290;2022-11-20T16:36:28;98265.27;;;-0.84;79.87
34235;BME280;20500;49.856;20.290;2022-11-20T16:39:35;98269.36;;;-0.84;80.03
34235;BME280;20500;49.856;20.290;2022-11-20T16:42:42;98268.19;;;-0.83;80.07
34235;BME280;20500;49.856;20.290;2022-11-20T16:45:46;98269.80;;;-0.81;80.09